sensor_id;sensor_type;location;lat;lon;timestamp;pressure;altitude;pressure_sealevel;temperature;humidity
85746;BME280;76186;47.590;19.194;2024-03-02T00:00:39;99242.63;;;8.37;88.13
85746;BME280;76186;47.590;19.194;2024-03-02T00:01:40;99242.63;;;8.37;88.49
85746;BME280;76186;47.590;19.194;2024-03-02T00:02:44;99245.94;;;8.34;88.49
85746;BME280;76186;47.590;19.194;2024-03-02T00:03:47;99240.00;;;8.32;88.56
85746;BME280;76186;47.590;19.194;2024-03-02T00:04:48;99250.63;;;8.28;88.66
85746;BME280;76186;47.590;19.194;2024-03-02T00:05:49;99249.84;;;8.28;88.59
85746;BME280;76186;47.590;19.194;2024-03-02T00:06:52;99238.50;;;8.26;88.83
85746;BME280;76186;47.590;19.194;2024-03-02T00:07:57;99247.84;;;8.20;89.26
85746;BME280;76186;47.590;19.194;2024-03-02T00:08:58;99244.13;;;8.16;89.03
85746;BME280;76186;47.590;19.194;2024-03-02T00:10:00;99237.53;;;8.08;89.04
85746;BME280;76186;47.590;19.194;2024-03-02T00:11:01;99234.03;;;8.07;89.29
85746;BME280;76186;47.590;19.194;2024-03-02T00:12:03;99235.44;;;8.05;89.29
85746;BME280;76186;47.590;19.194;2024-03-02T00:13:06;99234.22;;;7.97;89.97
85746;BME280;76186;47.590;19.194;2024-03-02T00:14:07;99235.03;;;7.98;89.96
85746;BME280;76186;47.590;19.194;2024-03-02T00:15:31;99238.53;;;7.98;89.83
85746;BME280;76186;47.590;19.194;2024-03-02T00:16:37;99230.41;;;7.98;89.62
85746;BME280;76186;47.590;19.194;2024-03-02T00:17:38;99234.72;;;7.99;89.58
85746;BME280;76186;47.590;19.194;2024-03-02T00:18:38;99232.00;;;7.99;89.77
85746;BME280;76186;47.590;19.194;2024-03-02T00:19:39;99228.50;;;7.99;89.59
85746;BME280;76186;47.590;19.194;2024-03-02T00:20:40;99229.59;;;7.98;89.98
85746;BME280;76186;47.590;19.194;2024-03-02T00:21:41;99233.72;;;7.95;89.96
85746;BME280;76186;47.590;19.194;2024-03-02T00:22:41;99228.31;;;7.95;89.89
85746;BME280;76186;47.590;19.194;2024-03-02T00:23:42;99224.78;;;7.95;90.17
85746;BME280;76186;47.590;19.194;2024-03-02T00:24:43;99221.19;;;7.99;89.67
85746;BME280;76186;47.590;19.194;2024-03-02T00:25:51;99224.59;;;8.05;89.47
85746;BME280;76186;47.590;19.194;2024-03-02T00:26:55;99219.34;;;8.08;89.47
85746;BME280;76186;47.590;19.194;2024-03-02T00:27:55;99220.75;;;8.20;88.86
85746;BME280;76186;47.590;19.194;2024-03-02T00:28:56;99226.16;;;8.20;88.83
85746;BME280;76186;47.590;19.194;2024-03-02T00:30:01;99217.25;;;8.33;88.33
85746;BME280;76186;47.590;19.194;2024-03-02T00:32:16;99227.50;;;8.36;88.15
85746;BME280;76186;47.590;19.194;2024-03-02T00:33:17;99227.75;;;8.48;87.68
85746;BME280;76186;47.590;19.194;2024-03-02T00:34:18;99230.75;;;8.46;87.90
85746;BME280;76186;47.590;19.194;2024-03-02T00:35:22;99228.66;;;8.43;87.89
85746;BME280;76186;47.590;19.194;2024-03-02T00:36:25;99232.06;;;8.49;87.63
85746;BME280;76186;47.590;19.194;2024-03-02T00:37:27;99234.16;;;8.52;87.72
85746;BME280;76186;47.590;19.194;2024-03-02T00:38:30;99229.53;;;8.53;87.14
85746;BME280;76186;47.590;19.194;2024-03-02T00:39:31;99225.72;;;8.54;87.13
85746;BME280;76186;47.590;19.194;2024-03-02T00:40:32;99222.72;;;8.55;87.07
85746;BME280;76186;47.590;19.194;2024-03-02T00:41:33;99227.63;;;8.53;87.25
85746;BME280;76186;47.590;19.194;2024-03-02T00:42:34;99234.34;;;8.56;87.00
85746;BME280;76186;47.590;19.194;2024-03-02T00:43:52;99243.19;;;8.61;86.73
85746;BME280;76186;47.590;19.194;2024-03-02T00:44:57;99237.75;;;8.61;86.74
85746;BME280;76186;47.590;19.194;2024-03-02T00:45:57;99248.00;;;8.64;86.28
85746;BME280;76186;47.590;19.194;2024-03-02T00:46:58;99242.38;;;8.61;86.36
85746;BME280;76186;47.590;19.194;2024-03-02T00:48:00;99241.88;;;8.59;86.88
85746;BME280;76186;47.590;19.194;2024-03-02T00:49:02;99240.66;;;8.65;86.49
85746;BME280;76186;47.590;19.194;2024-03-02T00:50:03;99245.28;;;8.64;86.19
85746;BME280;76186;47.590;19.194;2024-03-02T00:51:04;99244.78;;;8.62;86.40
85746;BME280;76186;47.590;19.194;2024-03-02T00:52:05;99242.19;;;8.57;86.83
85746;BME280;76186;47.590;19.194;2024-03-02T00:53:11;99241.97;;;8.54;86.87
85746;BME280;76186;47.590;19.194;2024-03-02T00:54:13;99241.19;;;8.53;86.66
85746;BME280;76186;47.590;19.194;2024-03-02T00:55:14;99238.16;;;8.55;86.50
85746;BME280;76186;47.590;19.194;2024-03-02T00:56:15;99243.41;;;8.51;86.19
85746;BME280;76186;47.590;19.194;2024-03-02T00:57:16;99237.78;;;8.48;86.63
85746;BME280;76186;47.590;19.194;2024-03-02T00:58:16;99242.19;;;8.43;87.19
85746;BME280;76186;47.590;19.194;2024-03-02T00:59:17;99236.59;;;8.40;87.04
85746;BME280;76186;47.590;19.194;2024-03-02T01:00:18;99235.19;;;8.42;86.70
85746;BME280;76186;47.590;19.194;2024-03-02T01:01:19;99232.66;;;8.46;86.29
85746;BME280;76186;47.590;19.194;2024-03-02T01:02:22;99230.56;;;8.43;86.38
85746;BME280;76186;47.590;19.194;2024-03-02T01:03:23;99232.16;;;8.44;86.50
85746;BME280;76186;47.590;19.194;2024-03-02T01:04:24;99234.25;;;8.47;86.21
85746;BME280;76186;47.590;19.194;2024-03-02T01:05:25;99229.72;;;8.56;85.63
85746;BME280;76186;47.590;19.194;2024-03-02T01:06:25;99239.06;;;8.50;85.84
85746;BME280;76186;47.590;19.194;2024-03-02T01:07:26;99234.75;;;8.49;86.14
85746;BME280;76186;47.590;19.194;2024-03-02T01:08:26;99230.44;;;8.48;86.12
85746;BME280;76186;47.590;19.194;2024-03-02T01:09:27;99232.34;;;8.48;86.50
85746;BME280;76186;47.590;19.194;2024-03-02T01:10:28;99232.66;;;8.46;86.05
85746;BME280;76186;47.590;19.194;2024-03-02T01:11:28;99228.34;;;8.45;86.08
85746;BME280;76186;47.590;19.194;2024-03-02T01:12:30;99221.81;;;8.46;86.15
85746;BME280;76186;47.590;19.194;2024-03-02T01:13:31;99225.13;;;8.43;86.15
85746;BME280;76186;47.590;19.194;2024-03-02T01:14:32;99225.25;;;8.38;86.49
85746;BME280;76186;47.590;19.194;2024-03-02T01:15:33;99226.25;;;8.42;86.46
85746;BME280;76186;47.590;19.194;2024-03-02T01:16:34;99218.91;;;8.42;86.35
85746;BME280;76186;47.590;19.194;2024-03-02T01:17:34;99215.41;;;8.42;86.42
85746;BME280;76186;47.590;19.194;2024-03-02T01:18:35;99217.00;;;8.43;86.51
85746;BME280;76186;47.590;19.194;2024-03-02T01:19:35;99211.78;;;8.46;86.20
85746;BME280;76186;47.590;19.194;2024-03-02T01:20:36;99209.38;;;8.45;85.94
85746;BME280;76186;47.590;19.194;2024-03-02T01:21:36;99208.88;;;8.43;86.12
85746;BME280;76186;47.590;19.194;2024-03-02T01:22:37;99208.88;;;8.43;86.35
85746;BME280;76186;47.590;19.194;2024-03-02T01:23:37;99213.38;;;8.48;86.21
85746;BME280;76186;47.590;19.194;2024-03-02T01:24:38;99208.47;;;8.50;86.35
85746;BME280;76186;47.590;19.194;2024-03-02T01:25:39;99210.19;;;8.45;86.46
85746;BME280;76186;47.590;19.194;2024-03-02T01:26:40;99198.47;;;8.36;86.39
85746;BME280;76186;47.590;19.194;2024-03-02T01:27:40;99202.66;;;8.42;86.26
85746;BME280;76186;47.590;19.194;2024-03-02T01:28:41;99197.44;;;8.46;86.40
85746;BME280;76186;47.590;19.194;2024-03-02T01:29:42;99212.38;;;8.43;86.26
85746;BME280;76186;47.590;19.194;2024-03-02T01:30:42;99202.16;;;8.40;86.62
85746;BME280;76186;47.590;19.194;2024-03-02T01:31:43;99194.63;;;8.37;86.63
85746;BME280;76186;47.590;19.194;2024-03-02T01:32:43;99194.63;;;8.37;86.64
85746;BME280;76186;47.590;19.194;2024-03-02T01:33:44;99196.88;;;8.35;87.21
85746;BME280;76186;47.590;19.194;2024-03-02T01:34:44;99193.88;;;8.37;87.42
85746;BME280;76186;47.590;19.194;2024-03-02T01:35:45;99194.84;;;8.41;86.78
85746;BME280;76186;47.590;19.194;2024-03-02T01:36:46;99190.22;;;8.41;86.82
85746;BME280;76186;47.590;19.194;2024-03-02T01:37:46;99188.31;;;8.42;86.81
85746;BME280;76186;47.590;19.194;2024-03-02T01:38:47;99191.81;;;8.42;86.55
85746;BME280;76186;47.590;19.194;2024-03-02T01:39:47;99194.84;;;8.41;86.82
85746;BME280;76186;47.590;19.194;2024-03-02T01:40:48;99191.63;;;8.39;86.95
85746;BME280;76186;47.590;19.194;2024-03-02T01:41:49;99187.31;;;8.38;86.55
85746;BME280;76186;47.590;19.194;2024-03-02T01:42:49;99189.41;;;8.41;86.29
85746;BME280;76186;47.590;19.194;2024-03-02T01:43:50;99189.72;;;8.39;86.49
85746;BME280;76186;47.590;19.194;2024-03-02T01:44:51;99189.91;;;8.43;86.31
85746;BME280;76186;47.590;19.194;2024-03-02T01:45:52;99189.59;;;8.44;86.25
85746;BME280;76186;47.590;19.194;2024-03-02T01:46:53;99189.91;;;8.43;86.16
85746;BME280;76186;47.590;19.194;2024-03-02T01:47:53;99195.22;;;8.48;86.06
85746;BME280;76186;47.590;19.194;2024-03-02T01:48:54;99189.78;;;8.48;85.83
85746;BME280;76186;47.590;19.194;2024-03-02T01:49:55;99193.63;;;8.47;86.20
85746;BME280;76186;47.590;19.194;2024-03-02T01:50:55;99187.69;;;8.45;85.99
85746;BME280;76186;47.590;19.194;2024-03-02T01:51:56;99185.28;;;8.43;86.00
85746;BME280;76186;47.590;19.194;2024-03-02T01:52:57;99188.81;;;8.44;86.19
85746;BME280;76186;47.590;19.194;2024-03-02T01:53:58;99196.44;;;8.42;86.39
85746;BME280;76186;47.590;19.194;2024-03-02T01:54:58;99192.63;;;8.43;86.25
85746;BME280;76186;47.590;19.194;2024-03-02T01:55:59;99190.91;;;8.47;86.32
85746;BME280;76186;47.590;19.194;2024-03-02T01:57:00;99190.41;;;8.45;85.75
85746;BME280;76186;47.590;19.194;2024-03-02T01:58:01;99192.81;;;8.46;86.12
85746;BME280;76186;47.590;19.194;2024-03-02T01:59:02;99192.50;;;8.48;85.68
85746;BME280;76186;47.590;19.194;2024-03-02T02:00:03;99199.00;;;8.61;85.04
85746;BME280;76186;47.590;19.194;2024-03-02T02:01:05;99194.81;;;8.55;85.12
85746;BME280;76186;47.590;19.194;2024-03-02T02:02:07;99197.81;;;8.53;85.16
85746;BME280;76186;47.590;19.194;2024-03-02T02:03:07;99188.56;;;8.54;84.93
85746;BME280;76186;47.590;19.194;2024-03-02T02:04:08;99194.00;;;8.54;85.19
85746;BME280;76186;47.590;19.194;2024-03-02T02:05:09;99188.81;;;8.66;84.45
85746;BME280;76186;47.590;19.194;2024-03-02T02:06:10;99190.69;;;8.57;84.90
85746;BME280;76186;47.590;19.194;2024-03-02T02:07:10;99193.13;;;8.67;84.32
85746;BME280;76186;47.590;19.194;2024-03-02T02:08:11;99188.34;;;8.64;84.54
85746;BME280;76186;47.590;19.194;2024-03-02T02:09:12;99189.56;;;8.58;85.02
85746;BME280;76186;47.590;19.194;2024-03-02T02:10:12;99190.56;;;8.62;84.45
85746;BME280;76186;47.590;19.194;2024-03-02T02:11:16;99194.88;;;8.63;84.66
85746;BME280;76186;47.590;19.194;2024-03-02T02:12:17;99204.78;;;8.68;84.34
85746;BME280;76186;47.590;19.194;2024-03-02T02:13:18;99201.16;;;8.72;84.63
85746;BME280;76186;47.590;19.194;2024-03-02T02:14:18;99208.38;;;8.77;84.29
85746;BME280;76186;47.590;19.194;2024-03-02T02:15:29;99205.16;;;8.75;84.48
85746;BME280;76186;47.590;19.194;2024-03-02T02:16:29;99200.03;;;8.73;83.84
85746;BME280;76186;47.590;19.194;2024-03-02T02:17:30;99207.50;;;8.68;84.45
85746;BME280;76186;47.590;19.194;2024-03-02T02:18:31;99206.88;;;8.71;84.25
85746;BME280;76186;47.590;19.194;2024-03-02T02:19:31;99202.75;;;8.73;83.82
85746;BME280;76186;47.590;19.194;2024-03-02T02:20:32;99212.00;;;8.72;84.21
85746;BME280;76186;47.590;19.194;2024-03-02T02:21:32;99210.69;;;8.70;84.11
85746;BME280;76186;47.590;19.194;2024-03-02T02:22:33;99211.50;;;8.70;83.90
85746;BME280;76186;47.590;19.194;2024-03-02T02:23:34;99209.41;;;8.67;84.26
85746;BME280;76186;47.590;19.194;2024-03-02T02:24:34;99212.00;;;8.72;84.23
85746;BME280;76186;47.590;19.194;2024-03-02T02:25:35;99214.22;;;8.70;84.42
85746;BME280;76186;47.590;19.194;2024-03-02T02:26:35;99209.59;;;8.71;84.50
85746;BME280;76186;47.590;19.194;2024-03-02T02:27:36;99208.78;;;8.70;84.42
85746;BME280;76186;47.590;19.194;2024-03-02T02:28:36;99208.06;;;8.78;83.58
85746;BME280;76186;47.590;19.194;2024-03-02T02:29:37;99207.97;;;8.70;84.27
85746;BME280;76186;47.590;19.194;2024-03-02T02:30:38;99204.91;;;8.63;84.58
85746;BME280;76186;47.590;19.194;2024-03-02T02:31:39;99210.69;;;8.70;84.16
85746;BME280;76186;47.590;19.194;2024-03-02T02:32:40;99210.50;;;8.66;84.38
85746;BME280;76186;47.590;19.194;2024-03-02T02:33:42;99213.22;;;8.66;84.25
85746;BME280;76186;47.590;19.194;2024-03-02T02:34:42;99203.16;;;8.67;83.97
85746;BME280;76186;47.590;19.194;2024-03-02T02:35:43;99204.78;;;8.68;83.52
85746;BME280;76186;47.590;19.194;2024-03-02T02:36:43;99205.16;;;8.75;83.64
85746;BME280;76186;47.590;19.194;2024-03-02T02:37:48;99207.06;;;8.74;83.64
85746;BME280;76186;47.590;19.194;2024-03-02T02:38:49;99210.47;;;8.80;82.90
85746;BME280;76186;47.590;19.194;2024-03-02T02:39:50;99209.06;;;8.83;82.53
85746;BME280;76186;47.590;19.194;2024-03-02T02:40:51;99211.88;;;8.77;82.79
85746;BME280;76186;47.590;19.194;2024-03-02T02:41:51;99205.16;;;8.75;82.62
85746;BME280;76186;47.590;19.194;2024-03-02T02:42:52;99198.75;;;8.71;82.72
85746;BME280;76186;47.590;19.194;2024-03-02T02:43:52;99206.94;;;8.79;82.31
85746;BME280;76186;47.590;19.194;2024-03-02T02:44:53;99202.63;;;8.78;82.35
85746;BME280;76186;47.590;19.194;2024-03-02T02:45:53;99198.81;;;8.79;82.15
85746;BME280;76186;47.590;19.194;2024-03-02T02:46:54;99199.31;;;8.82;82.21
85746;BME280;76186;47.590;19.194;2024-03-02T02:47:54;99190.88;;;8.83;82.54
85746;BME280;76186;47.590;19.194;2024-03-02T02:48:55;99191.47;;;8.80;82.15
85746;BME280;76186;47.590;19.194;2024-03-02T02:49:55;99201.16;;;8.72;82.92
85746;BME280;76186;47.590;19.194;2024-03-02T02:50:56;99198.09;;;8.88;82.03
85746;BME280;76186;47.590;19.194;2024-03-02T02:51:57;99196.09;;;8.79;82.70
85746;BME280;76186;47.590;19.194;2024-03-02T02:52:57;99199.38;;;8.90;81.45
85746;BME280;76186;47.590;19.194;2024-03-02T02:53:58;99200.78;;;8.88;82.71
85746;BME280;76186;47.590;19.194;2024-03-02T02:54:59;99207.25;;;9.00;81.20
85746;BME280;76186;47.590;19.194;2024-03-02T02:55:59;99207.31;;;8.87;81.78
85746;BME280;76186;47.590;19.194;2024-03-02T02:57:00;99211.16;;;8.86;81.96
85746;BME280;76186;47.590;19.194;2024-03-02T02:58:00;99213.75;;;8.91;81.57
85746;BME280;76186;47.590;19.194;2024-03-02T02:59:01;99207.31;;;8.87;82.14
85746;BME280;76186;47.590;19.194;2024-03-02T03:00:04;99206.25;;;8.96;81.14
85746;BME280;76186;47.590;19.194;2024-03-02T03:01:05;99205.22;;;9.06;80.88
85746;BME280;76186;47.590;19.194;2024-03-02T03:02:06;99213.09;;;9.16;80.16
85746;BME280;76186;47.590;19.194;2024-03-02T03:03:07;99217.94;;;9.28;79.69
85746;BME280;76186;47.590;19.194;2024-03-02T03:04:07;99208.78;;;9.15;80.43
85746;BME280;76186;47.590;19.194;2024-03-02T03:05:13;99207.72;;;9.25;79.59
85746;BME280;76186;47.590;19.194;2024-03-02T03:06:14;99209.63;;;9.24;80.50
85746;BME280;76186;47.590;19.194;2024-03-02T03:07:14;99203.25;;;9.29;79.69
85746;BME280;76186;47.590;19.194;2024-03-02T03:08:15;99206.16;;;9.32;79.70
85746;BME280;76186;47.590;19.194;2024-03-02T03:09:18;99203.94;;;9.34;79.90
85746;BME280;76186;47.590;19.194;2024-03-02T03:10:19;99205.66;;;9.30;79.78
85746;BME280;76186;47.590;19.194;2024-03-02T03:11:22;99207.75;;;9.33;79.69
85746;BME280;76186;47.590;19.194;2024-03-02T03:12:25;99206.13;;;9.24;80.20
85746;BME280;76186;47.590;19.194;2024-03-02T03:13:25;99213.19;;;9.33;79.77
85746;BME280;76186;47.590;19.194;2024-03-02T03:14:26;99211.41;;;9.29;80.03
85746;BME280;76186;47.590;19.194;2024-03-02T03:15:27;99212.53;;;9.28;80.20
85746;BME280;76186;47.590;19.194;2024-03-02T03:16:27;99217.00;;;9.24;80.60
85746;BME280;76186;47.590;19.194;2024-03-02T03:17:28;99220.63;;;9.19;80.92
85746;BME280;76186;47.590;19.194;2024-03-02T03:18:29;99214.84;;;9.12;81.15
85746;BME280;76186;47.590;19.194;2024-03-02T03:19:29;99218.16;;;9.09;81.62
85746;BME280;76186;47.590;19.194;2024-03-02T03:20:30;99216.06;;;9.06;81.79
85746;BME280;76186;47.590;19.194;2024-03-02T03:21:31;99211.06;;;8.99;82.30
85746;BME280;76186;47.590;19.194;2024-03-02T03:22:31;99217.66;;;9.07;81.59
85746;BME280;76186;47.590;19.194;2024-03-02T03:23:32;99212.97;;;8.99;81.73
85746;BME280;76186;47.590;19.194;2024-03-02T03:24:33;99214.72;;;8.95;82.33
85746;BME280;76186;47.590;19.194;2024-03-02T03:25:33;99213.75;;;8.91;82.64
85746;BME280;76186;47.590;19.194;2024-03-02T03:26:36;99222.50;;;8.88;83.36
85746;BME280;76186;47.590;19.194;2024-03-02T03:27:37;99216.94;;;8.93;83.20
85746;BME280;76186;47.590;19.194;2024-03-02T03:28:37;99219.66;;;8.93;82.49
85746;BME280;76186;47.590;19.194;2024-03-02T03:29:38;99218.91;;;9.01;81.85
85746;BME280;76186;47.590;19.194;2024-03-02T03:30:39;99216.19;;;9.01;82.29
85746;BME280;76186;47.590;19.194;2024-03-02T03:31:40;99225.94;;;9.02;82.76
85746;BME280;76186;47.590;19.194;2024-03-02T03:32:40;99215.03;;;8.93;83.12
85746;BME280;76186;47.590;19.194;2024-03-02T03:33:41;99218.06;;;8.92;82.86
85746;BME280;76186;47.590;19.194;2024-03-02T03:34:41;99222.38;;;8.93;83.26
85746;BME280;76186;47.590;19.194;2024-03-02T03:35:42;99214.34;;;8.88;83.06
85746;BME280;76186;47.590;19.194;2024-03-02T03:36:42;99218.66;;;8.89;83.83
85746;BME280;76186;47.590;19.194;2024-03-02T03:37:43;99216.75;;;8.89;83.37
85746;BME280;76186;47.590;19.194;2024-03-02T03:38:44;99221.88;;;8.91;83.31
85746;BME280;76186;47.590;19.194;2024-03-02T03:39:45;99219.78;;;8.88;83.10
85746;BME280;76186;47.590;19.194;2024-03-02T03:40:46;99222.00;;;8.86;84.38
85746;BME280;76186;47.590;19.194;2024-03-02T03:41:46;99218.66;;;8.89;83.84
85746;BME280;76186;47.590;19.194;2024-03-02T03:42:47;99226.91;;;8.84;83.83
85746;BME280;76186;47.590;19.194;2024-03-02T03:43:49;99222.72;;;8.77;83.88
85746;BME280;76186;47.590;19.194;2024-03-02T03:44:49;99219.22;;;8.77;84.67
85746;BME280;76186;47.590;19.194;2024-03-02T03:45:50;99218.41;;;8.76;84.49
85746;BME280;76186;47.590;19.194;2024-03-02T03:46:51;99218.72;;;8.75;85.04
85746;BME280;76186;47.590;19.194;2024-03-02T03:47:53;99220.00;;;8.77;85.08
85746;BME280;76186;47.590;19.194;2024-03-02T03:48:53;99226.31;;;8.87;84.48
85746;BME280;76186;47.590;19.194;2024-03-02T03:49:54;99231.28;;;8.71;85.69
85746;BME280;76186;47.590;19.194;2024-03-02T03:50:54;99224.84;;;8.67;85.65
85746;BME280;76186;47.590;19.194;2024-03-02T03:51:55;99231.47;;;8.74;85.59
85746;BME280;76186;47.590;19.194;2024-03-02T03:52:55;99225.66;;;8.67;85.58
85746;BME280;76186;47.590;19.194;2024-03-02T03:53:56;99231.84;;;8.82;85.26
85746;BME280;76186;47.590;19.194;2024-03-02T03:54:57;99231.16;;;8.76;86.14
85746;BME280;76186;47.590;19.194;2024-03-02T03:55:57;99240.59;;;8.78;85.83
85746;BME280;76186;47.590;19.194;2024-03-02T03:56:58;99240.09;;;8.76;86.01
85746;BME280;76186;47.590;19.194;2024-03-02T03:57:58;99239.50;;;8.79;85.85
85746;BME280;76186;47.590;19.194;2024-03-02T03:58:59;99235.09;;;8.70;86.72
85746;BME280;76186;47.590;19.194;2024-03-02T04:00:00;99241.31;;;8.70;86.69
85746;BME280;76186;47.590;19.194;2024-03-02T04:01:00;99239.97;;;8.59;87.53
85746;BME280;76186;47.590;19.194;2024-03-02T04:02:01;99246.78;;;8.57;88.19
85746;BME280;76186;47.590;19.194;2024-03-02T04:03:03;99250.69;;;8.64;87.25
85746;BME280;76186;47.590;19.194;2024-03-02T04:04:03;99249.31;;;8.53;88.01
85746;BME280;76186;47.590;19.194;2024-03-02T04:05:04;99242.19;;;8.57;87.97
85746;BME280;76186;47.590;19.194;2024-03-02T04:06:09;99245.38;;;8.59;88.19
85746;BME280;76186;47.590;19.194;2024-03-02T04:07:09;99241.47;;;8.65;87.35
85746;BME280;76186;47.590;19.194;2024-03-02T04:08:10;99246.38;;;8.63;87.32
85746;BME280;76186;47.590;19.194;2024-03-02T04:09:11;99246.38;;;8.63;86.97
85746;BME280;76186;47.590;19.194;2024-03-02T04:10:12;99246.25;;;8.68;87.31
85746;BME280;76186;47.590;19.194;2024-03-02T04:11:13;99246.19;;;8.60;87.67
85746;BME280;76186;47.590;19.194;2024-03-02T04:12:13;99242.50;;;8.78;86.69
85746;BME280;76186;47.590;19.194;2024-03-02T04:13:14;99238.88;;;8.83;86.38
85746;BME280;76186;47.590;19.194;2024-03-02T04:14:15;99241.59;;;8.83;86.37
85746;BME280;76186;47.590;19.194;2024-03-02T04:15:16;99251.81;;;8.63;87.80
85746;BME280;76186;47.590;19.194;2024-03-02T04:16:18;99248.59;;;8.61;87.65
85746;BME280;76186;47.590;19.194;2024-03-02T04:17:19;99239.34;;;8.62;88.08
85746;BME280;76186;47.590;19.194;2024-03-02T04:18:19;99249.91;;;8.64;87.93
85746;BME280;76186;47.590;19.194;2024-03-02T04:19:20;99248.41;;;8.58;88.55
85746;BME280;76186;47.590;19.194;2024-03-02T04:20:21;99241.25;;;8.62;88.06
85746;BME280;76186;47.590;19.194;2024-03-02T04:21:21;99247.81;;;8.47;88.88
85746;BME280;76186;47.590;19.194;2024-03-02T04:22:22;99244.38;;;8.55;88.39
85746;BME280;76186;47.590;19.194;2024-03-02T04:23:22;99242.69;;;8.59;88.14
85746;BME280;76186;47.590;19.194;2024-03-02T04:24:23;99241.19;;;8.53;88.84
85746;BME280;76186;47.590;19.194;2024-03-02T04:25:23;99250.44;;;8.38;89.35
85746;BME280;76186;47.590;19.194;2024-03-02T04:26:25;99249.03;;;8.41;89.63
85746;BME280;76186;47.590;19.194;2024-03-02T04:27:25;99251.25;;;8.39;90.17
85746;BME280;76186;47.590;19.194;2024-03-02T04:28:26;99243.59;;;8.41;89.41
85746;BME280;76186;47.590;19.194;2024-03-02T04:29:27;99251.94;;;8.31;90.39
85746;BME280;76186;47.590;19.194;2024-03-02T04:30:28;99249.13;;;8.08;91.72
85746;BME280;76186;47.590;19.194;2024-03-02T04:31:28;99245.50;;;8.40;90.93
85746;BME280;76186;47.590;19.194;2024-03-02T04:32:29;99239.69;;;8.47;90.05
85746;BME280;76186;47.590;19.194;2024-03-02T04:33:30;99239.69;;;8.47;90.69
85746;BME280;76186;47.590;19.194;2024-03-02T04:34:30;99249.63;;;8.38;90.33
85746;BME280;76186;47.590;19.194;2024-03-02T04:35:31;99247.13;;;8.28;91.01
85746;BME280;76186;47.590;19.194;2024-03-02T04:36:31;99247.72;;;8.38;90.72
85746;BME280;76186;47.590;19.194;2024-03-02T04:37:34;99246.03;;;8.15;91.84
85746;BME280;76186;47.590;19.194;2024-03-02T04:38:35;99251.66;;;8.32;91.31
85746;BME280;76186;47.590;19.194;2024-03-02T04:39:36;99255.44;;;8.45;90.39
85746;BME280;76186;47.590;19.194;2024-03-02T04:40:36;99251.31;;;8.48;90.45
85746;BME280;76186;47.590;19.194;2024-03-02T04:41:37;99249.91;;;8.50;90.49
85746;BME280;76186;47.590;19.194;2024-03-02T04:42:37;99240.19;;;8.49;90.46
85746;BME280;76186;47.590;19.194;2024-03-02T04:43:38;99247.00;;;8.46;90.08
85746;BME280;76186;47.590;19.194;2024-03-02T04:44:39;99251.66;;;8.32;91.39
85746;BME280;76186;47.590;19.194;2024-03-02T04:45:40;99252.03;;;8.39;90.89
85746;BME280;76186;47.590;19.194;2024-03-02T04:46:40;99256.06;;;8.42;91.02
85746;BME280;76186;47.590;19.194;2024-03-02T04:47:41;99250.75;;;8.37;90.92
85746;BME280;76186;47.590;19.194;2024-03-02T04:48:41;99243.09;;;8.53;89.93
85746;BME280;76186;47.590;19.194;2024-03-02T04:49:42;99246.41;;;8.50;90.16
85746;BME280;76186;47.590;19.194;2024-03-02T04:50:43;99257.97;;;8.41;90.94
85746;BME280;76186;47.590;19.194;2024-03-02T04:51:44;99255.25;;;8.28;91.96
85746;BME280;76186;47.590;19.194;2024-03-02T04:52:44;99253.56;;;8.18;92.66
85746;BME280;76186;47.590;19.194;2024-03-02T04:53:45;99254.25;;;8.24;92.86
85746;BME280;76186;47.590;19.194;2024-03-02T04:54:45;99250.84;;;8.32;91.43
85746;BME280;76186;47.590;19.194;2024-03-02T04:56:05;99260.69;;;8.28;92.08
85746;BME280;76186;47.590;19.194;2024-03-02T04:57:34;99249.63;;;8.38;91.62
85746;BME280;76186;47.590;19.194;2024-03-02T04:58:35;99261.59;;;8.37;91.26
85746;BME280;76186;47.590;19.194;2024-03-02T04:59:36;99253.75;;;8.22;92.45
85746;BME280;76186;47.590;19.194;2024-03-02T05:00:36;99262.38;;;8.37;91.64
85746;BME280;76186;47.590;19.194;2024-03-02T05:01:37;99257.47;;;8.26;92.35
85746;BME280;76186;47.590;19.194;2024-03-02T05:02:37;99256.66;;;8.25;92.60
85746;BME280;76186;47.590;19.194;2024-03-02T05:03:38;99252.34;;;8.38;91.85
85746;BME280;76186;47.590;19.194;2024-03-02T05:04:38;99253.66;;;8.27;92.16
85746;BME280;76186;47.590;19.194;2024-03-02T05:05:39;99263.06;;;8.43;91.69
85746;BME280;76186;47.590;19.194;2024-03-02T05:06:40;99254.94;;;8.43;91.34
85746;BME280;76186;47.590;19.194;2024-03-02T05:07:42;99253.66;;;8.40;91.45
85746;BME280;76186;47.590;19.194;2024-03-02T05:08:44;99251.44;;;8.42;91.44
85746;BME280;76186;47.590;19.194;2024-03-02T05:09:45;99254.84;;;8.48;90.86
85746;BME280;76186;47.590;19.194;2024-03-02T05:10:45;99254.66;;;8.31;92.15
85746;BME280;76186;47.590;19.194;2024-03-02T05:11:46;99253.03;;;8.30;92.33
85746;BME280;76186;47.590;19.194;2024-03-02T05:12:59;99254.66;;;8.31;92.36
85746;BME280;76186;47.590;19.194;2024-03-02T05:14:00;99261.69;;;8.32;92.11
85746;BME280;76186;47.590;19.194;2024-03-02T05:15:01;99260.06;;;8.31;92.54
85746;BME280;76186;47.590;19.194;2024-03-02T05:16:02;99258.47;;;8.16;92.75
85746;BME280;76186;47.590;19.194;2024-03-02T05:17:03;99260.38;;;8.43;92.42
85746;BME280;76186;47.590;19.194;2024-03-02T05:18:03;99256.78;;;8.34;92.10
85746;BME280;76186;47.590;19.194;2024-03-02T05:19:05;99256.97;;;8.24;92.04
85746;BME280;76186;47.590;19.194;2024-03-02T05:20:09;99253.94;;;8.11;93.54
85746;BME280;76186;47.590;19.194;2024-03-02T05:21:10;99264.09;;;8.20;93.32
85746;BME280;76186;47.590;19.194;2024-03-02T05:22:11;99258.88;;;8.23;92.86
85746;BME280;76186;47.590;19.194;2024-03-02T05:23:12;99258.47;;;8.30;92.61
85746;BME280;76186;47.590;19.194;2024-03-02T05:24:13;99256.56;;;8.30;92.54
85746;BME280;76186;47.590;19.194;2024-03-02T05:25:14;99262.06;;;8.11;93.64
85746;BME280;76186;47.590;19.194;2024-03-02T05:26:14;99266.09;;;8.14;93.59